sensor_id;sensor_type;location;lat;lon;timestamp;pressure;altitude;pressure_sealevel;temperature;humidity
80393;BME280;69719;45.544;10.218;2023-12-22T00:00:28;98401.38;;;7.85;100.00
80393;BME280;69719;45.544;10.218;2023-12-22T00:02:54;98407.44;;;7.62;100.00
80393;BME280;69719;45.544;10.218;2023-12-22T00:05:19;98402.22;;;7.74;100.00
80393;BME280;69719;45.544;10.218;2023-12-22T00:07:45;98403.19;;;7.56;100.00
80393;BME280;69719;45.544;10.218;2023-12-22T00:10:10;98401.59;;;7.55;100.00
80393;BME280;69719;45.544;10.218;2023-12-22T00:12:36;98405.00;;;7.44;100.00
80393;BME280;69719;45.544;10.218;2023-12-22T00:15:04;98394.28;;;7.24;100.00
80393;BME280;69719;45.544;10.218;2023-12-22T00:17:30;98400.03;;;7.15;100.00
80393;BME280;69719;45.544;10.218;2023-12-22T00:19:55;98403.66;;;7.14;100.00
80393;BME280;69719;45.544;10.218;2023-12-22T00:22:24;98394.91;;;7.03;100.00
80393;BME280;69719;45.544;10.218;2023-12-22T00:24:50;98422.69;;;7.36;100.00
80393;BME280;69719;45.544;10.218;2023-12-22T00:27:16;98413.25;;;7.41;100.00
80393;BME280;69719;45.544;10.218;2023-12-22T00:29:42;98404.28;;;7.21;100.00
80393;BME280;69719;45.544;10.218;2023-12-22T00:32:07;98419.38;;;7.12;100.00
80393;BME280;69719;45.544;10.218;2023-12-22T00:34:35;98421.16;;;7.35;100.00
80393;BME280;69719;45.544;10.218;2023-12-22T00:37:03;98419.41;;;7.52;100.00
80393;BME280;69719;45.544;10.218;2023-12-22T00:39:30;98423.28;;;7.66;100.00
80393;BME280;69719;45.544;10.218;2023-12-22T00:41:56;98445.56;;;7.27;100.00
80393;BME280;69719;45.544;10.218;2023-12-22T00:44:22;98443.09;;;7.21;100.00
80393;BME280;69719;45.544;10.218;2023-12-22T00:46:47;98429.88;;;7.06;100.00
80393;BME280;69719;45.544;10.218;2023-12-22T00:49:13;98429.19;;;6.98;100.00
80393;BME280;69719;45.544;10.218;2023-12-22T00:51:38;98440.97;;;7.18;100.00
80393;BME280;69719;45.544;10.218;2023-12-22T00:54:03;98439.44;;;7.45;100.00
80393;BME280;69719;45.544;10.218;2023-12-22T00:56:29;98450.41;;;7.24;100.00
80393;BME280;69719;45.544;10.218;2023-12-22T00:58:54;98449.28;;;7.08;100.00
80393;BME280;69719;45.544;10.218;2023-12-22T01:01:20;98450.53;;;7.17;100.00
80393;BME280;69719;45.544;10.218;2023-12-22T01:03:46;98430.88;;;7.44;100.00
80393;BME280;69719;45.544;10.218;2023-12-22T01:06:12;98413.44;;;7.12;100.00
80393;BME280;69719;45.544;10.218;2023-12-22T01:08:37;98420.72;;;7.15;100.00
80393;BME280;69719;45.544;10.218;2023-12-22T01:11:03;98423.22;;;7.49;100.00
80393;BME280;69719;45.544;10.218;2023-12-22T01:13:29;98429.78;;;7.40;100.00
80393;BME280;69719;45.544;10.218;2023-12-22T01:15:54;98436.03;;;7.56;100.00
80393;BME280;69719;45.544;10.218;2023-12-22T01:18:20;98434.66;;;7.65;100.00
80393;BME280;69719;45.544;10.218;2023-12-22T01:20:46;98429.75;;;7.52;100.00
80393;BME280;69719;45.544;10.218;2023-12-22T01:23:11;98418.31;;;7.76;100.00
80393;BME280;69719;45.544;10.218;2023-12-22T01:25:36;98437.97;;;7.77;100.00
80393;BME280;69719;45.544;10.218;2023-12-22T01:28:02;98438.25;;;7.64;100.00
80393;BME280;69719;45.544;10.218;2023-12-22T01:30:28;98458.22;;;7.52;100.00
80393;BME280;69719;45.544;10.218;2023-12-22T01:32:53;98440.03;;;7.75;100.00
80393;BME280;69719;45.544;10.218;2023-12-22T01:35:18;98438.91;;;7.71;100.00
80393;BME280;69719;45.544;10.218;2023-12-22T01:37:44;98435.88;;;7.74;100.00
80393;BME280;69719;45.544;10.218;2023-12-22T01:40:10;98429.28;;;7.83;100.00
80393;BME280;69719;45.544;10.218;2023-12-22T01:42:35;98443.06;;;7.44;100.00
80393;BME280;69719;45.544;10.218;2023-12-22T01:45:01;98456.50;;;7.57;100.00
80393;BME280;69719;45.544;10.218;2023-12-22T01:47:26;98463.84;;;7.89;100.00
80393;BME280;69719;45.544;10.218;2023-12-22T01:49:52;98442.59;;;7.47;100.00
80393;BME280;69719;45.544;10.218;2023-12-22T01:52:18;98437.59;;;7.29;100.00
80393;BME280;69719;45.544;10.218;2023-12-22T01:54:44;98439.13;;;7.30;100.00
80393;BME280;69719;45.544;10.218;2023-12-22T01:57:13;98438.69;;;7.33;100.00
80393;BME280;69719;45.544;10.218;2023-12-22T01:59:39;98445.47;;;7.22;100.00
80393;BME280;69719;45.544;10.218;2023-12-22T02:02:05;98463.38;;;7.00;100.00
80393;BME280;69719;45.544;10.218;2023-12-22T02:04:30;98453.91;;;6.83;100.00
80393;BME280;69719;45.544;10.218;2023-12-22T02:07:01;98467.84;;;6.70;100.00
80393;BME280;69719;45.544;10.218;2023-12-22T02:09:27;98458.75;;;6.68;100.00
80393;BME280;69719;45.544;10.218;2023-12-22T02:11:53;98459.66;;;6.96;100.00
80393;BME280;69719;45.544;10.218;2023-12-22T02:14:18;98457.16;;;7.01;100.00
80393;BME280;69719;45.544;10.218;2023-12-22T02:19:45;98438.41;;;6.83;100.00
80393;BME280;69719;45.544;10.218;2023-12-22T02:22:12;98440.53;;;6.97;100.00
80393;BME280;69719;45.544;10.218;2023-12-22T02:24:38;98445.28;;;6.77;100.00
80393;BME280;69719;45.544;10.218;2023-12-22T02:27:28;98436.84;;;6.82;100.00
80393;BME280;69719;45.544;10.218;2023-12-22T02:30:09;98443.91;;;6.86;100.00
80393;BME280;69719;45.544;10.218;2023-12-22T02:32:48;98451.91;;;6.62;100.00
80393;BME280;69719;45.544;10.218;2023-12-22T02:35:16;98442.22;;;6.46;100.00
80393;BME280;69719;45.544;10.218;2023-12-22T02:37:43;98430.97;;;6.98;100.00
80393;BME280;69719;45.544;10.218;2023-12-22T02:40:11;98420.75;;;6.91;100.00
80393;BME280;69719;45.544;10.218;2023-12-22T02:42:38;98413.25;;;6.90;100.00
80393;BME280;69719;45.544;10.218;2023-12-22T02:45:04;98409.41;;;6.92;100.00
80393;BME280;69719;45.544;10.218;2023-12-22T02:47:30;98407.50;;;6.76;100.00
80393;BME280;69719;45.544;10.218;2023-12-22T02:49:57;98394.03;;;6.74;100.00
80393;BME280;69719;45.544;10.218;2023-12-22T02:52:23;98365.34;;;6.87;100.00
80393;BME280;69719;45.544;10.218;2023-12-22T02:54:48;98371.09;;;6.89;100.00
80393;BME280;69719;45.544;10.218;2023-12-22T02:57:14;98368.69;;;7.11;100.00
80393;BME280;69719;45.544;10.218;2023-12-22T02:59:39;98376.75;;;7.26;100.00
80393;BME280;69719;45.544;10.218;2023-12-22T03:02:05;98378.28;;;7.39;100.00
80393;BME280;69719;45.544;10.218;2023-12-22T03:04:30;98386.44;;;7.47;100.00
80393;BME280;69719;45.544;10.218;2023-12-22T03:06:56;98400.53;;;7.68;100.00
80393;BME280;69719;45.544;10.218;2023-12-22T03:09:22;98395.28;;;7.91;100.00
80393;BME280;69719;45.544;10.218;2023-12-22T03:11:48;98390.25;;;8.01;100.00
80393;BME280;69719;45.544;10.218;2023-12-22T03:14:13;98392.75;;;8.13;100.00
80393;BME280;69719;45.544;10.218;2023-12-22T03:16:39;98402.09;;;8.25;99.38
80393;BME280;69719;45.544;10.218;2023-12-22T03:19:06;98392.50;;;8.42;98.45
80393;BME280;69719;45.544;10.218;2023-12-22T03:21:32;98379.34;;;8.49;96.63
80393;BME280;69719;45.544;10.218;2023-12-22T03:23:57;98369.03;;;8.71;93.99
80393;BME280;69719;45.544;10.218;2023-12-22T03:26:23;98378.72;;;8.97;88.62
80393;BME280;69719;45.544;10.218;2023-12-22T03:28:49;98380.69;;;8.90;91.99
80393;BME280;69719;45.544;10.218;2023-12-22T03:31:14;98384.09;;;9.12;88.53
80393;BME280;69719;45.544;10.218;2023-12-22T03:33:39;98386.81;;;9.22;84.07
80393;BME280;69719;45.544;10.218;2023-12-22T03:36:05;98386.75;;;9.39;81.86
80393;BME280;69719;45.544;10.218;2023-12-22T03:38:31;98378.72;;;9.40;80.12
80393;BME280;69719;45.544;10.218;2023-12-22T03:40:56;98397.25;;;9.75;73.73
80393;BME280;69719;45.544;10.218;2023-12-22T03:43:22;98382.16;;;9.99;70.14
80393;BME280;69719;45.544;10.218;2023-12-22T03:45:47;98385.28;;;10.64;60.62
80393;BME280;69719;45.544;10.218;2023-12-22T03:48:13;98384.59;;;11.41;54.57
80393;BME280;69719;45.544;10.218;2023-12-22T03:50:38;98386.56;;;12.06;50.10
80393;BME280;69719;45.544;10.218;2023-12-22T03:53:04;98390.72;;;12.42;48.06
80393;BME280;69719;45.544;10.218;2023-12-22T03:55:29;98381.31;;;12.41;47.88
80393;BME280;69719;45.544;10.218;2023-12-22T03:57:55;98382.56;;;12.84;45.43
80393;BME280;69719;45.544;10.218;2023-12-22T04:00:20;98418.78;;;13.21;44.85
80393;BME280;69719;45.544;10.218;2023-12-22T04:02:45;98401.88;;;13.57;42.23
80393;BME280;69719;45.544;10.218;2023-12-22T04:05:11;98405.22;;;13.67;41.59
80393;BME280;69719;45.544;10.218;2023-12-22T04:07:37;98416.81;;;14.00;40.70
80393;BME280;69719;45.544;10.218;2023-12-22T04:10:02;98414.44;;;13.99;40.48
80393;BME280;69719;45.544;10.218;2023-12-22T04:12:28;98415.53;;;13.92;40.49
80393;BME280;69719;45.544;10.218;2023-12-22T04:14:53;98435.84;;;14.06;40.48
80393;BME280;69719;45.544;10.218;2023-12-22T04:17:19;98443.09;;;14.14;40.18
80393;BME280;69719;45.544;10.218;2023-12-22T04:19:44;98430.47;;;14.26;39.55
80393;BME280;69719;45.544;10.218;2023-12-22T04:22:10;98437.75;;;13.95;40.85
80393;BME280;69719;45.544;10.218;2023-12-22T04:24:35;98432.03;;;13.88;41.25
80393;BME280;69719;45.544;10.218;2023-12-22T04:27:01;98437.22;;;13.93;40.76
80393;BME280;69719;45.544;10.218;2023-12-22T04:29:26;98431.28;;;13.82;41.07
80393;BME280;69719;45.544;10.218;2023-12-22T04:31:52;98436.63;;;14.06;40.29
80393;BME280;69719;45.544;10.218;2023-12-22T04:34:17;98436.63;;;14.06;39.90
80393;BME280;69719;45.544;10.218;2023-12-22T04:36:43;98430.91;;;14.04;39.46
80393;BME280;69719;45.544;10.218;2023-12-22T04:39:08;98429.31;;;14.03;39.65
80393;BME280;69719;45.544;10.218;2023-12-22T04:41:34;98419.50;;;14.24;38.33
80393;BME280;69719;45.544;10.218;2023-12-22T04:43:59;98411.59;;;14.34;37.79
80393;BME280;69719;45.544;10.218;2023-12-22T04:46:29;98398.84;;;14.56;36.59
80393;BME280;69719;45.544;10.218;2023-12-22T04:48:55;98385.38;;;15.15;35.00
80393;BME280;69719;45.544;10.218;2023-12-22T04:51:20;98383.19;;;14.80;35.86
80393;BME280;69719;45.544;10.218;2023-12-22T04:53:46;98378.28;;;14.97;35.09
80393;BME280;69719;45.544;10.218;2023-12-22T04:56:12;98343.00;;;15.31;33.56
80393;BME280;69719;45.544;10.218;2023-12-22T04:58:37;98339.91;;;15.06;34.66
80393;BME280;69719;45.544;10.218;2023-12-22T05:01:03;98339.44;;;15.46;33.17
80393;BME280;69719;45.544;10.218;2023-12-22T05:03:28;98324.63;;;15.55;32.64
80393;BME280;69719;45.544;10.218;2023-12-22T05:05:54;98322.75;;;15.74;32.59
80393;BME280;69719;45.544;10.218;2023-12-22T05:08:19;98317.88;;;15.49;33.23
80393;BME280;69719;45.544;10.218;2023-12-22T05:10:45;98319.69;;;15.30;34.07
80393;BME280;69719;45.544;10.218;2023-12-22T05:13:10;98301.78;;;15.37;33.09
80393;BME280;69719;45.544;10.218;2023-12-22T05:15:36;98313.78;;;15.43;32.97
80393;BME280;69719;45.544;10.218;2023-12-22T05:18:01;98316.09;;;15.63;33.15
80393;BME280;69719;45.544;10.218;2023-12-22T05:20:27;98319.00;;;15.62;32.87
80393;BME280;69719;45.544;10.218;2023-12-22T05:22:52;98333.06;;;15.52;33.41
80393;BME280;69719;45.544;10.218;2023-12-22T05:25:18;98334.75;;;15.43;33.75
80393;BME280;69719;45.544;10.218;2023-12-22T05:27:43;98346.84;;;15.76;33.34
80393;BME280;69719;45.544;10.218;2023-12-22T05:30:09;98342.09;;;15.41;34.33
80393;BME280;69719;45.544;10.218;2023-12-22T05:32:35;98332.22;;;15.14;34.90
80393;BME280;69719;45.544;10.218;2023-12-22T05:35:00;98347.16;;;15.14;35.23
80393;BME280;69719;45.544;10.218;2023-12-22T05:37:26;98342.38;;;14.97;35.81
80393;BME280;69719;45.544;10.218;2023-12-22T05:39:51;98363.94;;;14.89;35.99
80393;BME280;69719;45.544;10.218;2023-12-22T05:42:17;98374.81;;;14.78;36.29
80393;BME280;69719;45.544;10.218;2023-12-22T05:44:42;98368.16;;;14.61;36.96
80393;BME280;69719;45.544;10.218;2023-12-22T05:47:08;98376.31;;;14.84;35.71
80393;BME280;69719;45.544;10.218;2023-12-22T05:49:33;98373.47;;;14.80;35.80
80393;BME280;69719;45.544;10.218;2023-12-22T05:51:59;98373.31;;;14.95;35.71
80393;BME280;69719;45.544;10.218;2023-12-22T05:54:25;98378.31;;;14.68;36.70
80393;BME280;69719;45.544;10.218;2023-12-22T05:56:51;98406.59;;;14.37;38.03
80393;BME280;69719;45.544;10.218;2023-12-22T05:59:17;98401.44;;;14.22;38.97
80393;BME280;69719;45.544;10.218;2023-12-22T06:01:43;98410.16;;;14.13;39.01
80393;BME280;69719;45.544;10.218;2023-12-22T06:04:09;98402.31;;;14.13;39.47
80393;BME280;69719;45.544;10.218;2023-12-22T06:06:36;98404.72;;;14.09;39.55
80393;BME280;69719;45.544;10.218;2023-12-22T06:09:03;98410.25;;;14.03;39.77
80393;BME280;69719;45.544;10.218;2023-12-22T06:11:29;98404.16;;;14.12;39.07
80393;BME280;69719;45.544;10.218;2023-12-22T06:13:54;98398.38;;;14.15;38.96
80393;BME280;69719;45.544;10.218;2023-12-22T06:16:20;98399.94;;;14.16;39.20
80393;BME280;69719;45.544;10.218;2023-12-22T06:18:45;98401.00;;;14.15;39.38
80393;BME280;69719;45.544;10.218;2023-12-22T06:21:11;98400.53;;;14.03;40.42
80393;BME280;69719;45.544;10.218;2023-12-22T06:23:37;98401.38;;;13.99;39.81
80393;BME280;69719;45.544;10.218;2023-12-22T06:26:12;98417.19;;;13.83;40.83
80393;BME280;69719;45.544;10.218;2023-12-22T06:28:37;98427.94;;;13.77;40.99
80393;BME280;69719;45.544;10.218;2023-12-22T06:31:05;98412.72;;;13.84;40.59
80393;BME280;69719;45.544;10.218;2023-12-22T06:33:31;98417.47;;;13.77;40.76
80393;BME280;69719;45.544;10.218;2023-12-22T06:35:56;98418.72;;;13.84;40.97
80393;BME280;69719;45.544;10.218;2023-12-22T06:38:22;98411.16;;;13.83;41.07
80393;BME280;69719;45.544;10.218;2023-12-22T06:40:47;98420.25;;;13.90;40.40
80393;BME280;69719;45.544;10.218;2023-12-22T06:43:13;98427.78;;;13.97;40.45
80393;BME280;69719;45.544;10.218;2023-12-22T06:45:40;98418.09;;;14.03;40.10
80393;BME280;69719;45.544;10.218;2023-12-22T06:48:06;98429.91;;;13.95;40.34
80393;BME280;69719;45.544;10.218;2023-12-22T06:50:32;98425.09;;;14.07;40.02
80393;BME280;69719;45.544;10.218;2023-12-22T06:52:57;98444.56;;;13.91;40.75
80393;BME280;69719;45.544;10.218;2023-12-22T06:55:23;98447.16;;;13.96;40.49
80393;BME280;69719;45.544;10.218;2023-12-22T06:57:49;98445.16;;;13.83;41.38
80393;BME280;69719;45.544;10.218;2023-12-22T07:00:15;98448.28;;;13.85;41.07
80393;BME280;69719;45.544;10.218;2023-12-22T07:02:41;98456.91;;;13.80;41.09
80393;BME280;69719;45.544;10.218;2023-12-22T07:07:36;98468.66;;;13.83;41.07
80393;BME280;69719;45.544;10.218;2023-12-22T07:10:01;98478.56;;;13.86;41.14
80393;BME280;69719;45.544;10.218;2023-12-22T07:12:27;98472.63;;;13.75;41.71
80393;BME280;69719;45.544;10.218;2023-12-22T07:14:53;98491.97;;;13.74;41.50
80393;BME280;69719;45.544;10.218;2023-12-22T07:17:19;98505.63;;;13.61;42.28
80393;BME280;69719;45.544;10.218;2023-12-22T07:19:44;98528.66;;;13.49;43.21
80393;BME280;69719;45.544;10.218;2023-12-22T07:22:10;98531.34;;;13.04;47.42
80393;BME280;69719;45.544;10.218;2023-12-22T07:24:36;98538.13;;;12.70;51.03
80393;BME280;69719;45.544;10.218;2023-12-22T07:27:01;98533.16;;;12.58;55.12
80393;BME280;69719;45.544;10.218;2023-12-22T07:29:27;98516.97;;;12.41;58.43
80393;BME280;69719;45.544;10.218;2023-12-22T07:31:52;98529.69;;;12.12;61.64
80393;BME280;69719;45.544;10.218;2023-12-22T07:34:18;98541.44;;;12.20;61.38
80393;BME280;69719;45.544;10.218;2023-12-22T07:36:43;98528.91;;;12.17;62.23
80393;BME280;69719;45.544;10.218;2023-12-22T07:39:09;98536.50;;;12.18;62.01
80393;BME280;69719;45.544;10.218;2023-12-22T07:41:36;98531.78;;;12.15;62.17
80393;BME280;69719;45.544;10.218;2023-12-22T07:44:02;98530.47;;;12.18;62.46
80393;BME280;69719;45.544;10.218;2023-12-22T07:46:27;98538.34;;;12.23;62.26
80393;BME280;69719;45.544;10.218;2023-12-22T07:48:56;98533.13;;;12.23;61.35
80393;BME280;69719;45.544;10.218;2023-12-22T07:51:21;98536.53;;;12.33;60.15
80393;BME280;69719;45.544;10.218;2023-12-22T07:53:46;98536.78;;;12.37;59.22
80393;BME280;69719;45.544;10.218;2023-12-22T07:56:12;98543.56;;;12.53;57.35
80393;BME280;69719;45.544;10.218;2023-12-22T07:58:38;98538.38;;;12.58;55.43
80393;BME280;69719;45.544;10.218;2023-12-22T08:01:04;98538.13;;;12.80;53.87
80393;BME280;69719;45.544;10.218;2023-12-22T08:03:31;98547.00;;;12.89;52.15
80393;BME280;69719;45.544;10.218;2023-12-22T08:05:56;98543.09;;;12.91;51.12
80393;BME280;69719;45.544;10.218;2023-12-22T08:08:21;98544.38;;;12.94;51.03
80393;BME280;69719;45.544;10.218;2023-12-22T08:10:47;98542.03;;;12.97;51.28
80393;BME280;69719;45.544;10.218;2023-12-22T08:13:14;98540.75;;;13.10;50.41
80393;BME280;69719;45.544;10.218;2023-12-22T08:15:39;98556.94;;;13.12;50.34
80393;BME280;69719;45.544;10.218;2023-12-22T08:18:06;98558.75;;;13.27;48.78
80393;BME280;69719;45.544;10.218;2023-12-22T08:20:31;98562.16;;;13.32;48.80
80393;BME280;69719;45.544;10.218;2023-12-22T08:22:57;98579.63;;;13.47;47.66
80393;BME280;69719;45.544;10.218;2023-12-22T08:25:22;98571.78;;;13.47;47.41
80393;BME280;69719;45.544;10.218;2023-12-22T08:27:48;98582.72;;;13.59;47.41
80393;BME280;69719;45.544;10.218;2023-12-22T08:30:13;98572.78;;;13.61;46.76
80393;BME280;69719;45.544;10.218;2023-12-22T08:32:42;98565.97;;;13.70;45.74
80393;BME280;69719;45.544;10.218;2023-12-22T08:35:07;98563.31;;;13.80;45.94
80393;BME280;69719;45.544;10.218;2023-12-22T08:37:33;98562.78;;;13.83;45.70
80393;BME280;69719;45.544;10.218;2023-12-22T08:39:59;98562.47;;;13.94;44.79
80393;BME280;69719;45.544;10.218;2023-12-22T08:42:25;98568.72;;;13.99;44.56
80393;BME280;69719;45.544;10.218;2023-12-22T08:44:51;98577.34;;;14.09;44.46
80393;BME280;69719;45.544;10.218;2023-12-22T08:47:20;98569.50;;;14.04;43.54
80393;BME280;69719;45.544;10.218;2023-12-22T08:49:45;98587.47;;;14.16;43.98
80393;BME280;69719;45.544;10.218;2023-12-22T08:52:11;98601.84;;;14.18;43.96
80393;BME280;69719;45.544;10.218;2023-12-22T08:54:36;98604.97;;;14.20;43.87
80393;BME280;69719;45.544;10.218;2023-12-22T08:57:02;98595.03;;;14.22;44.47
80393;BME280;69719;45.544;10.218;2023-12-22T08:59:28;98613.88;;;14.29;44.59
80393;BME280;69719;45.544;10.218;2023-12-22T09:01:53;98605.00;;;14.30;44.78
80393;BME280;69719;45.544;10.218;2023-12-22T09:04:19;98609.66;;;14.33;44.39
80393;BME280;69719;45.544;10.218;2023-12-22T09:06:50;98600.28;;;14.32;44.41
80393;BME280;69719;45.544;10.218;2023-12-22T09:09:16;98601.00;;;14.38;44.84
80393;BME280;69719;45.544;10.218;2023-12-22T09:11:41;98609.38;;;14.40;45.01
80393;BME280;69719;45.544;10.218;2023-12-22T09:14:07;98609.88;;;14.47;45.35
80393;BME280;69719;45.544;10.218;2023-12-22T09:16:36;98604.63;;;14.47;44.76
80393;BME280;69719;45.544;10.218;2023-12-22T09:19:06;98593.59;;;14.50;45.27
80393;BME280;69719;45.544;10.218;2023-12-22T09:21:31;98604.03;;;14.60;44.50
80393;BME280;69719;45.544;10.218;2023-12-22T09:23:57;98605.34;;;14.57;44.85
80393;BME280;69719;45.544;10.218;2023-12-22T09:26:22;98599.59;;;14.60;44.93
80393;BME280;69719;45.544;10.218;2023-12-22T09:28:48;98602.16;;;14.65;45.18
80393;BME280;69719;45.544;10.218;2023-12-22T09:31:14;98605.50;;;14.76;44.96
80393;BME280;69719;45.544;10.218;2023-12-22T09:33:42;98603.38;;;14.78;45.55
80393;BME280;69719;45.544;10.218;2023-12-22T09:36:08;98596.78;;;14.86;45.48
80393;BME280;69719;45.544;10.218;2023-12-22T09:38:37;98601.53;;;14.84;45.47
80393;BME280;69719;45.544;10.218;2023-12-22T09:41:03;98602.03;;;14.86;45.67
80393;BME280;69719;45.544;10.218;2023-12-22T09:43:34;98607.50;;;14.89;45.89
80393;BME280;69719;45.544;10.218;2023-12-22T09:46:02;98597.53;;;14.91;45.28
80393;BME280;69719;45.544;10.218;2023-12-22T09:48:29;98602.44;;;15.03;45.20
80393;BME280;69719;45.544;10.218;2023-12-22T09:50:55;98600.84;;;15.02;45.06
80393;BME280;69719;45.544;10.218;2023-12-22T09:53:21;98619.63;;;15.14;44.84
80393;BME280;69719;45.544;10.218;2023-12-22T09:55:49;98603.34;;;15.17;45.11
80393;BME280;69719;45.544;10.218;2023-12-22T09:58:15;98610.66;;;15.20;45.20
80393;BME280;69719;45.544;10.218;2023-12-22T10:00:42;98602.81;;;15.20;45.01
80393;BME280;69719;45.544;10.218;2023-12-22T10:03:09;98621.09;;;15.25;45.30
80393;BME280;69719;45.544;10.218;2023-12-22T10:05:36;98606.16;;;15.25;44.92
80393;BME280;69719;45.544;10.218;2023-12-22T10:08:02;98596.47;;;15.26;45.35
80393;BME280;69719;45.544;10.218;2023-12-22T10:10:29;98592.69;;;15.37;44.96
80393;BME280;69719;45.544;10.218;2023-12-22T10:12:56;98585.84;;;15.41;44.63
80393;BME280;69719;45.544;10.218;2023-12-22T10:15:22;98583.97;;;15.47;44.45
80393;BME280;69719;45.544;10.218;2023-12-22T10:17:54;98568.22;;;15.52;45.23
80393;BME280;69719;45.544;10.218;2023-12-22T10:20:20;98570.31;;;15.50;45.34
80393;BME280;69719;45.544;10.218;2023-12-22T10:22:46;98552.16;;;15.58;45.12
80393;BME280;69719;45.544;10.218;2023-12-22T10:25:20;98549.22;;;15.60;44.81
80393;BME280;69719;45.544;10.218;2023-12-22T10:27:46;98561.00;;;15.62;43.85
80393;BME280;69719;45.544;10.218;2023-12-22T10:30:12;98548.41;;;15.64;43.82
80393;BME280;69719;45.544;10.218;2023-12-22T10:32:41;98545.78;;;15.64;43.32
80393;BME280;69719;45.544;10.218;2023-12-22T10:35:09;98559.84;;;15.73;43.08
80393;BME280;69719;45.544;10.218;2023-12-22T10:37:35;98550.84;;;15.79;42.02
80393;BME280;69719;45.544;10.218;2023-12-22T10:40:04;98555.09;;;15.75;42.44
80393;BME280;69719;45.544;10.218;2023-12-22T10:42:31;98562.28;;;15.88;41.26
80393;BME280;69719;45.544;10.218;2023-12-22T10:44:57;98563.28;;;15.92;41.39
80393;BME280;69719;45.544;10.218;2023-12-22T10:47:23;98556.38;;;16.01;41.95
80393;BME280;69719;45.544;10.218;2023-12-22T10:49:49;98553.59;;;15.93;42.52
80393;BME280;69719;45.544;10.218;2023-12-22T10:52:18;98557.63;;;16.04;41.51
80393;BME280;69719;45.544;10.218;2023-12-22T10:54:45;98554.72;;;16.05;41.16
80393;BME280;69719;45.544;10.218;2023-12-22T10:57:11;98547.25;;;15.94;41.55
80393;BME280;69719;45.544;10.218;2023-12-22T10:59:44;98543.28;;;15.96;41.41
80393;BME280;69719;45.544;10.218;2023-12-22T11:02:17;98542.16;;;16.02;41.46
80393;BME280;69719;45.544;10.218;2023-12-22T11:05:04;98535.09;;;16.03;41.05
80393;BME280;69719;45.544;10.218;2023-12-22T11:07:35;98534.78;;;16.04;41.71
80393;BME280;69719;45.544;10.218;2023-12-22T11:10:07;98533.44;;;16.07;41.06
80393;BME280;69719;45.544;10.218;2023-12-22T11:12:38;98538.50;;;16.03;41.16
80393;BME280;69719;45.544;10.218;2023-12-22T11:15:04;98542.97;;;16.03;41.14
80393;BME280;69719;45.544;10.218;2023-12-22T11:17:34;98532.91;;;16.10;41.02
80393;BME280;69719;45.544;10.218;2023-12-22T11:20:01;98527.84;;;16.13;40.46
80393;BME280;69719;45.544;10.218;2023-12-22T11:22:28;98527.44;;;16.25;39.66
80393;BME280;69719;45.544;10.218;2023-12-22T11:24:58;98526.16;;;16.23;39.82
80393;BME280;69719;45.544;10.218;2023-12-22T11:27:25;98516.41;;;16.23;39.93
80393;BME280;69719;45.544;10.218;2023-12-22T11:29:52;98508.19;;;16.30;40.25
80393;BME280;69719;45.544;10.218;2023-12-22T11:32:19;98509.84;;;16.26;39.82
80393;BME280;69719;45.544;10.218;2023-12-22T11:34:48;98494.66;;;16.23;40.38
80393;BME280;69719;45.544;10.218;2023-12-22T11:37:14;98501.47;;;16.42;39.81
80393;BME280;69719;45.544;10.218;2023-12-22T11:39:41;98497.69;;;16.48;39.53
80393;BME280;69719;45.544;10.218;2023-12-22T11:42:09;98500.59;;;16.47;39.75
80393;BME280;69719;45.544;10.218;2023-12-22T11:44:35;98501.38;;;16.47;39.63
80393;BME280;69719;45.544;10.218;2023-12-22T11:47:08;98514.22;;;16.49;39.04
80393;BME280;69719;45.544;10.218;2023-12-22T11:49:38;98501.84;;;16.54;38.94
80393;BME280;69719;45.544;10.218;2023-12-22T11:52:13;98499.50;;;16.53;38.88
80393;BME280;69719;45.544;10.218;2023-12-22T11:54:50;98492.03;;;16.60;38.05
80393;BME280;69719;45.544;10.218;2023-12-22T12:00:37;98476.56;;;16.58;37.84
80393;BME280;69719;45.544;10.218;2023-12-22T12:03:06;98475.09;;;16.52;39.10
80393;BME280;69719;45.544;10.218;2023-12-22T12:05:32;98479.25;;;16.53;39.22
80393;BME280;69719;45.544;10.218;2023-12-22T12:08:06;98478.31;;;16.63;38.41
80393;BME280;69719;45.544;10.218;2023-12-22T12:13:11;98493.09;;;16.59;37.16
80393;BME280;69719;45.544;10.218;2023-12-22T12:15:37;98497.00;;;16.61;36.67
80393;BME280;69719;45.544;10.218;2023-12-22T12:18:04;98509.09;;;16.76;36.03
80393;BME280;69719;45.544;10.218;2023-12-22T12:20:33;98512.22;;;16.78;36.44
80393;BME280;69719;45.544;10.218;2023-12-22T12:23:01;98512.63;;;16.85;36.01
80393;BME280;69719;45.544;10.218;2023-12-22T12:25:32;98500.38;;;16.80;36.55
80393;BME280;69719;45.544;10.218;2023-12-22T12:28:02;98491.78;;;16.75;36.62
80393;BME280;69719;45.544;10.218;2023-12-22T12:30:28;98477.66;;;16.71;36.72
80393;BME280;69719;45.544;10.218;2023-12-22T12:32:54;98472.34;;;16.89;35.46
80393;BME280;69719;45.544;10.218;2023-12-22T12:35:20;98472.06;;;16.91;34.96
80393;BME280;69719;45.544;10.218;2023-12-22T12:37:47;98472.94;;;16.86;35.97
80393;BME280;69719;45.544;10.218;2023-12-22T12:40:17;98464.94;;;16.91;35.27
80393;BME280;69719;45.544;10.218;2023-12-22T12:42:45;98463.22;;;16.87;35.28
80393;BME280;69719;45.544;10.218;2023-12-22T12:45:10;98459.31;;;16.84;35.53
80393;BME280;69719;45.544;10.218;2023-12-22T12:47:36;98461.03;;;16.75;36.53
80393;BME280;69719;45.544;10.218;2023-12-22T12:50:02;98455.50;;;16.77;36.30
80393;BME280;69719;45.544;10.218;2023-12-22T12:52:28;98462.53;;;16.95;35.36
80393;BME280;69719;45.544;10.218;2023-12-22T12:54:54;98457.84;;;16.92;35.26
80393;BME280;69719;45.544;10.218;2023-12-22T12:57:21;98476.56;;;17.04;35.77